Shady Valley, Tennessee
Current Conditions -  °F | °C
As of 12:55 AM on Friday 28 Nov 2014 (Local Time) from KVJI Reporting Station
Overcast Overcast  
Wind Chill: 22°   Ceiling: 2000
Heat Index: 29°   Visibility: 10mi
Dew Point: 23°   Wind: 7mph
Humidity: 78%   Direction: 340°NNW
Pressure: 30.28"   Gusts: NA
Location:  36.52°N, 81.93°W
Report Text: KVJI 280555Z AUTO 34006KT 10SM BKN020 BKN025 OVC041 M02/M05 A3028 RMK AO2 T10161050 11002 21016 400321016
Loading
Personal Weather Stations






























Interactive Weather Map New forecast layout! Learn more

10-Day Weather Forecast

Advertisements
Track Severe Weather on mobile